createdAt,value
2023-02-19T01:10:48.495Z,93214.00
2023-02-19T01:22:47.813Z,93206.00
2023-02-19T01:23:47.838Z,93201.00
2023-02-19T01:24:47.850Z,93201.00
2023-02-19T01:25:47.876Z,93195.00
2023-02-19T01:26:47.904Z,93193.00
2023-02-19T01:27:47.930Z,93193.00
2023-02-19T01:28:47.949Z,93193.00
2023-02-19T01:29:47.962Z,93197.00
2023-02-19T01:30:48.065Z,93201.00
2023-02-19T01:31:48.076Z,93201.00
2023-02-19T01:32:48.046Z,93195.00
2023-02-19T01:33:48.056Z,93193.00
2023-02-19T01:34:48.081Z,93199.00
2023-02-19T01:35:48.107Z,93203.00
2023-02-19T01:36:48.114Z,93197.00
2023-02-19T01:37:48.144Z,93199.00
2023-02-19T01:38:48.154Z,93197.00
2023-02-19T01:39:48.170Z,93199.00
2023-02-19T01:40:48.189Z,93199.00
2023-02-19T01:41:48.201Z,93199.00
2023-02-19T01:42:48.290Z,93197.00
2023-02-19T01:43:48.296Z,93193.00
2023-02-19T01:44:48.301Z,93197.00
2023-02-19T01:45:48.305Z,93193.00
2023-02-19T01:46:48.355Z,93187.00
2023-02-19T01:47:48.391Z,93189.00
2023-02-19T01:48:48.410Z,93179.00
2023-02-19T01:49:48.443Z,93191.00
2023-02-19T01:50:48.434Z,93193.00
2023-02-19T01:51:48.514Z,93187.00
2023-02-19T01:52:48.526Z,93185.00
2023-02-19T01:53:48.536Z,93173.00
2023-02-19T01:54:48.559Z,93173.00
2023-02-19T01:55:48.581Z,93171.00
2023-02-19T01:56:48.593Z,93177.00
2023-02-19T01:57:48.619Z,93175.00
2023-02-19T01:58:48.639Z,93177.00
2023-02-19T01:59:48.667Z,93173.00
2023-02-19T02:00:48.700Z,93154.00
2023-02-19T02:01:48.744Z,93163.00
2023-02-19T02:02:48.729Z,93161.00
2023-02-19T02:03:48.764Z,93171.00
2023-02-19T02:04:51.538Z,93167.00
2023-02-19T02:05:48.825Z,93181.00
2023-02-19T02:06:48.761Z,93154.00
2023-02-19T02:07:48.745Z,93165.00
2023-02-19T02:08:48.748Z,93159.00
2023-02-19T02:09:48.736Z,93167.00
2023-02-19T02:10:48.846Z,93159.00
2023-02-19T02:11:48.744Z,93157.00
2023-02-19T02:12:48.724Z,93159.00
2023-02-19T02:13:48.716Z,93154.00
2023-02-19T02:14:48.728Z,93154.00
2023-02-19T02:15:48.705Z,93156.00
2023-02-19T02:16:48.697Z,93156.00
2023-02-19T02:17:48.684Z,93154.00
2023-02-19T02:18:48.687Z,93156.00
2023-02-19T02:19:48.674Z,93140.00
2023-02-19T02:20:48.669Z,93144.00
2023-02-19T02:21:48.668Z,93140.00
2023-02-19T02:22:48.653Z,93130.00
2023-02-19T02:23:48.647Z,93138.00
2023-02-19T02:24:48.707Z,93114.00
2023-02-19T02:25:48.638Z,93120.00
2023-02-19T02:26:48.638Z,93124.00
2023-02-19T02:27:48.624Z,93134.00
2023-02-19T02:28:48.681Z,93124.00
2023-02-19T02:29:48.610Z,93132.00
2023-02-19T02:30:48.610Z,93134.00
2023-02-19T02:31:48.734Z,93130.00
2023-02-19T02:32:48.662Z,93128.00
2023-02-19T02:33:48.588Z,93140.00
2023-02-19T02:34:48.577Z,93140.00
2023-02-19T02:35:49.534Z,93132.00
2023-02-19T02:36:48.555Z,93122.00
2023-02-19T02:37:48.561Z,93122.00
2023-02-19T02:38:48.569Z,93130.00
2023-02-19T02:39:48.545Z,93130.00
2023-02-19T02:40:48.547Z,93138.00
2023-02-19T02:41:48.534Z,93130.00
2023-02-19T02:42:48.537Z,93136.00
2023-02-19T02:43:48.522Z,93138.00
2023-02-19T02:44:48.518Z,93136.00
2023-02-19T02:45:48.524Z,93136.00
2023-02-19T02:46:48.514Z,93130.00
2023-02-19T02:47:48.497Z,93124.00
2023-02-19T02:48:48.491Z,93116.00
2023-02-19T02:49:48.491Z,93112.00
2023-02-19T02:50:48.483Z,93112.00
2023-02-19T02:51:48.522Z,93116.00
2023-02-19T02:52:48.467Z,93118.00
2023-02-19T02:53:48.449Z,93116.00
2023-02-19T02:54:48.452Z,93110.00
2023-02-19T02:55:48.547Z,93118.00
2023-02-19T02:56:48.443Z,93114.00
2023-02-19T02:57:48.429Z,93114.00
2023-02-19T02:58:48.433Z,93112.00
2023-02-19T02:59:48.413Z,93118.00
2023-02-19T03:00:48.436Z,93110.00
2023-02-19T03:01:48.532Z,93112.00
2023-02-19T03:02:48.437Z,93110.00
2023-02-19T03:03:48.397Z,93112.00
2023-02-19T03:04:48.396Z,93109.00
2023-02-19T03:05:48.387Z,93112.00
2023-02-19T03:06:48.370Z,93112.00
2023-02-19T03:07:48.373Z,93112.00
2023-02-19T03:08:48.371Z,93105.00
2023-02-19T03:09:49.711Z,93097.00
2023-02-19T03:16:48.338Z,93101.00
2023-02-19T03:17:48.300Z,93103.00
2023-02-19T03:18:48.294Z,93112.00
2023-02-19T03:19:48.283Z,93112.00
2023-02-19T03:20:48.278Z,93112.00
2023-02-19T03:23:48.340Z,93105.00
2023-02-19T03:32:48.571Z,93089.00
2023-02-19T03:33:48.608Z,93099.00
2023-02-19T03:34:48.615Z,93089.00
2023-02-19T03:35:48.643Z,93077.00
2023-02-19T03:36:48.675Z,93077.00
2023-02-19T03:37:48.694Z,93075.00
2023-02-19T03:38:48.710Z,93073.00
2023-02-19T03:39:48.736Z,93069.00
2023-02-19T03:40:48.760Z,93069.00
2023-02-19T03:41:48.784Z,93065.00
2023-02-19T03:42:48.833Z,93073.00
2023-02-19T03:43:48.827Z,93071.00
2023-02-19T03:44:48.841Z,93087.00
2023-02-19T03:45:48.876Z,93071.00
2023-02-19T03:46:48.882Z,93067.00
2023-02-19T03:47:48.896Z,93060.00
2023-02-19T03:48:48.940Z,93073.00
2023-02-19T03:49:49.244Z,93071.00
2023-02-19T03:50:49.025Z,93054.00
2023-02-19T03:51:48.988Z,93058.00
2023-02-19T03:52:49.556Z,93050.00
2023-02-19T03:53:49.041Z,93056.00
2023-02-19T03:54:49.060Z,93058.00
2023-02-19T03:55:49.096Z,93067.00
2023-02-19T03:56:49.101Z,93060.00
2023-02-19T03:57:49.123Z,93069.00
2023-02-19T03:58:49.148Z,93065.00
2023-02-19T03:59:49.168Z,93062.00
2023-02-19T04:00:49.191Z,93064.00
2023-02-19T04:01:49.219Z,93058.00
2023-02-19T04:02:49.233Z,93067.00
2023-02-19T04:03:49.262Z,93056.00
2023-02-19T04:04:49.296Z,93069.00
2023-02-19T04:05:49.309Z,93060.00
2023-02-19T04:06:49.331Z,93056.00
2023-02-19T04:07:49.357Z,93054.00
2023-02-19T04:08:50.065Z,93052.00
2023-02-19T04:09:49.408Z,93050.00
2023-02-19T04:10:49.424Z,93050.00
2023-02-19T04:11:49.426Z,93058.00
2023-02-19T04:12:49.474Z,93046.00
2023-02-19T04:13:49.471Z,93046.00
2023-02-19T04:14:49.482Z,93060.00
2023-02-19T04:15:49.510Z,93058.00
2023-02-19T04:16:49.611Z,93050.00
2023-02-19T04:17:49.556Z,93038.00
2023-02-19T04:18:49.580Z,93052.00
2023-02-19T04:19:49.607Z,93046.00
2023-02-19T04:20:49.625Z,93034.00
2023-02-19T04:21:49.637Z,93038.00
2023-02-19T04:22:49.656Z,93038.00
2023-02-19T04:23:49.687Z,93046.00
2023-02-19T04:24:49.780Z,93038.00
2023-02-19T04:25:49.721Z,93040.00
2023-02-19T04:26:49.743Z,93046.00
2023-02-19T04:27:49.767Z,93046.00
2023-02-19T04:28:49.784Z,93046.00
2023-02-19T04:29:49.805Z,93052.00
2023-02-19T04:30:49.884Z,93044.00
2023-02-19T04:31:49.892Z,93040.00
2023-02-19T04:32:49.866Z,93042.00
2023-02-19T04:33:49.879Z,93038.00
2023-02-19T04:34:49.905Z,93034.00
2023-02-19T04:35:49.934Z,93036.00
2023-02-19T04:36:49.944Z,93034.00
2023-02-19T04:37:49.968Z,93038.00
2023-02-19T04:38:49.989Z,93032.00
2023-02-19T04:39:50.028Z,93032.00
2023-02-19T04:40:50.027Z,93024.00
2023-02-19T04:41:50.045Z,93030.00
2023-02-19T04:42:50.070Z,93034.00
2023-02-19T04:43:50.101Z,93032.00
2023-02-19T04:44:50.140Z,93028.00
2023-02-19T04:45:50.162Z,93030.00
2023-02-19T04:46:50.171Z,93036.00
2023-02-19T04:47:50.184Z,93028.00
2023-02-19T04:48:50.205Z,93028.00
2023-02-19T04:49:50.222Z,93028.00
2023-02-19T04:50:50.262Z,93042.00
2023-02-19T04:51:50.269Z,93044.00
2023-02-19T04:52:51.079Z,93038.00
2023-02-19T04:53:50.315Z,93034.00
2023-02-19T04:54:50.334Z,93018.00
2023-02-19T04:55:50.361Z,93017.00
2023-02-19T04:56:50.409Z,93020.00
2023-02-19T04:57:51.081Z,93030.00
2023-02-19T04:58:50.413Z,93022.00
2023-02-19T04:59:50.440Z,93013.00
2023-02-19T05:00:50.465Z,93009.00
2023-02-19T05:01:50.552Z,93011.00
2023-02-19T05:02:50.501Z,93007.00
2023-02-19T05:03:50.525Z,93003.00
2023-02-19T05:04:50.623Z,92999.00
2023-02-19T05:05:50.576Z,93001.00
2023-02-19T05:06:50.590Z,93003.00
2023-02-19T05:07:50.610Z,92995.00
2023-02-19T05:08:50.635Z,92995.00
2023-02-19T05:09:50.657Z,93003.00
2023-02-19T05:10:50.670Z,92993.00
2023-02-19T05:11:50.693Z,92997.00
2023-02-19T05:12:50.711Z,93003.00
2023-02-19T05:13:50.730Z,92995.00
2023-02-19T05:14:50.741Z,92987.00
2023-02-19T05:15:50.808Z,92987.00
2023-02-19T05:16:50.788Z,92983.00
2023-02-19T05:17:50.813Z,92973.00
2023-02-19T05:18:50.835Z,92967.00
2023-02-19T05:19:50.849Z,92962.00
2023-02-19T05:20:50.869Z,92962.00
2023-02-19T05:21:50.904Z,92960.00
2023-02-19T05:22:50.931Z,92962.00
2023-02-19T05:23:50.928Z,92958.00
2023-02-19T07:36:53.719Z,93216.00
2023-02-19T07:37:53.750Z,93210.00
2023-02-19T07:38:53.771Z,93208.00
2023-02-19T07:39:53.799Z,93210.00
2023-02-19T07:40:53.831Z,93208.00
2023-02-19T07:41:53.840Z,93206.00
2023-02-19T07:42:53.848Z,93208.00
2023-02-19T07:43:53.887Z,93214.00
2023-02-19T07:44:53.912Z,93222.00
2023-02-19T07:45:53.930Z,93222.00
2023-02-19T07:46:53.942Z,93226.00
2023-02-19T07:47:53.974Z,93230.00
2023-02-19T07:48:54.010Z,93238.00
2023-02-19T07:49:54.035Z,93236.00
2023-02-19T07:50:54.041Z,93236.00
2023-02-19T07:51:54.066Z,93230.00
2023-02-19T07:52:54.087Z,93234.00
2023-02-19T07:53:54.101Z,93234.00
2023-02-19T07:54:54.126Z,93232.00
2023-02-19T07:55:54.139Z,93236.00
2023-02-19T07:56:54.165Z,93236.00
2023-02-19T07:57:54.174Z,93240.00
2023-02-19T07:58:54.203Z,93248.00
2023-02-19T07:59:54.233Z,93240.00
2023-02-19T08:00:54.304Z,93242.00
2023-02-19T08:01:54.273Z,93246.00
2023-02-19T08:02:54.291Z,93242.00
2023-02-19T08:03:54.315Z,93246.00
2023-02-19T08:04:54.325Z,93244.00
2023-02-19T08:05:54.357Z,93248.00
2023-02-19T08:06:54.379Z,93246.00
2023-02-19T08:07:54.402Z,93244.00
2023-02-19T08:08:56.994Z,93246.00
2023-02-19T08:09:54.626Z,93248.00
2023-02-19T08:10:54.641Z,93240.00
2023-02-19T08:11:54.663Z,93242.00
2023-02-19T08:12:54.678Z,93246.00
2023-02-19T08:13:54.707Z,93242.00
2023-02-19T08:14:54.728Z,93236.00
2023-02-19T08:15:57.780Z,93238.00
2023-02-19T08:16:55.786Z,93236.00
2023-02-19T08:17:54.736Z,93236.00
2023-02-19T08:18:54.725Z,93230.00
2023-02-19T08:19:54.723Z,93232.00
2023-02-19T08:20:54.720Z,93234.00
2023-02-19T08:21:54.732Z,93236.00
2023-02-19T08:22:54.712Z,93242.00
2023-02-19T08:23:55.725Z,93240.00
2023-02-19T08:24:54.699Z,93242.00
2023-02-19T08:25:55.661Z,93240.00
2023-02-19T08:26:54.678Z,93240.00
2023-02-19T08:27:54.673Z,93242.00
2023-02-19T08:28:54.677Z,93236.00
2023-02-19T08:29:54.682Z,93228.00
2023-02-19T08:30:54.729Z,93226.00
2023-02-19T08:31:54.669Z,93232.00
2023-02-19T08:32:54.718Z,93230.00
2023-02-19T08:33:54.635Z,93234.00
2023-02-19T08:34:54.622Z,93236.00
2023-02-19T08:35:54.632Z,93238.00
2023-02-19T08:36:54.682Z,93234.00
2023-02-19T08:37:54.637Z,93236.00
2023-02-19T08:38:54.629Z,93230.00
2023-02-19T08:39:54.642Z,93232.00
2023-02-19T08:40:54.654Z,93224.00
2023-02-19T08:41:55.681Z,93238.00
2023-02-19T08:42:54.674Z,93236.00
2023-02-19T08:43:54.691Z,93240.00
2023-02-19T08:44:54.680Z,93242.00
2023-02-19T08:45:54.809Z,93240.00
2023-02-19T08:46:54.710Z,93236.00
2023-02-19T08:47:54.710Z,93238.00
2023-02-19T08:48:54.708Z,93240.00
2023-02-19T08:49:54.695Z,93242.00
2023-02-19T08:50:54.697Z,93244.00
2023-02-19T08:51:54.707Z,93236.00
2023-02-19T08:52:54.794Z,93238.00
2023-02-19T08:53:54.756Z,93236.00
2023-02-19T08:54:54.801Z,93234.00
2023-02-19T08:55:54.919Z,93230.00
2023-02-19T08:56:55.742Z,93234.00
2023-02-19T08:57:55.033Z,93240.00
2023-02-19T08:58:55.004Z,93238.00
2023-02-19T08:59:55.078Z,93238.00
2023-02-19T09:00:55.129Z,93234.00
2023-02-19T09:01:55.130Z,93238.00
2023-02-19T09:02:55.155Z,93242.00
2023-02-19T09:03:55.204Z,93242.00
2023-02-19T09:04:55.245Z,93232.00
2023-02-19T09:05:55.252Z,93242.00
2023-02-19T09:06:55.263Z,93236.00
2023-02-19T09:07:55.297Z,93234.00
2023-02-19T09:08:55.335Z,93236.00
2023-02-19T09:09:55.366Z,93230.00
2023-02-19T09:10:55.409Z,93232.00
2023-02-19T09:11:55.438Z,93224.00
2023-02-19T09:12:55.478Z,93232.00
2023-02-19T09:13:55.496Z,93224.00
2023-02-19T09:14:55.513Z,93232.00
2023-02-19T09:15:55.568Z,93218.00
2023-02-19T09:16:55.588Z,93222.00
2023-02-19T09:17:55.592Z,93212.00
2023-02-19T09:24:55.834Z,93212.00
2023-02-19T10:12:58.197Z,93199.00
2023-02-19T10:29:57.838Z,93183.00
2023-02-19T10:30:57.926Z,93199.00
2023-02-19T10:31:58.027Z,93203.00
2023-02-19T10:32:58.006Z,93206.00
2023-02-19T10:33:58.063Z,93199.00
2023-02-19T10:34:58.128Z,93203.00
2023-02-19T10:35:58.251Z,93193.00
2023-02-19T10:36:58.185Z,93181.00
2023-02-19T10:37:58.203Z,93181.00
2023-02-19T10:38:58.230Z,93177.00
2023-02-19T10:39:58.254Z,93197.00
2023-02-19T10:40:58.268Z,93195.00
2023-02-19T10:41:58.351Z,93189.00
2023-02-19T10:42:58.275Z,93189.00
2023-02-19T10:43:59.222Z,93183.00
2023-02-19T10:44:58.303Z,93187.00
2023-02-19T10:45:58.351Z,93185.00
2023-02-19T10:46:58.304Z,93189.00
2023-02-19T10:47:58.384Z,93197.00
2023-02-19T10:48:58.432Z,93197.00
2023-02-19T10:49:58.458Z,93179.00
2023-02-19T10:50:58.477Z,93183.00
2023-02-19T10:51:58.476Z,93189.00
2023-02-19T10:52:58.520Z,93185.00
2023-02-19T10:53:58.501Z,93179.00
2023-02-19T10:54:58.557Z,93183.00
2023-02-19T10:55:58.566Z,93193.00
2023-02-19T10:56:58.590Z,93179.00
2023-02-19T10:57:59.218Z,93177.00
2023-02-19T10:58:58.585Z,93175.00
2023-02-19T10:59:58.612Z,93177.00
2023-02-19T11:00:58.619Z,93165.00
2023-02-19T11:01:58.731Z,93179.00
2023-02-19T11:02:58.652Z,93159.00
2023-02-19T11:03:58.663Z,93169.00
2023-02-19T11:04:58.743Z,93169.00
2023-02-19T11:05:58.696Z,93157.00
2023-02-19T11:06:58.733Z,93173.00
2023-02-19T11:07:58.725Z,93161.00
2023-02-19T11:08:58.736Z,93179.00
2023-02-19T11:09:58.772Z,93175.00
2023-02-19T11:10:58.783Z,93175.00
2023-02-19T11:11:58.805Z,93171.00
2023-02-19T11:12:58.814Z,93169.00
2023-02-19T11:13:58.818Z,93167.00
2023-02-19T11:14:58.836Z,93175.00
2023-02-19T11:15:58.894Z,93175.00
2023-02-19T11:16:58.917Z,93181.00
2023-02-19T11:17:58.910Z,93179.00
2023-02-19T11:18:58.928Z,93193.00
2023-02-19T11:19:58.954Z,93191.00
2023-02-19T11:20:58.985Z,93191.00
2023-02-19T11:21:59.006Z,93179.00
2023-02-19T11:22:59.029Z,93185.00
2023-02-19T11:23:59.059Z,93199.00
2023-02-19T11:24:59.558Z,93191.00
2023-02-19T11:25:59.124Z,93191.00
2023-02-19T11:26:59.157Z,93179.00
2023-02-19T11:27:59.194Z,93191.00
2023-02-19T11:28:59.235Z,93195.00
2023-02-19T11:29:59.311Z,93185.00
2023-02-19T11:30:59.344Z,93191.00
2023-02-19T11:31:59.395Z,93187.00
2023-02-19T11:32:59.405Z,93183.00
2023-02-19T11:33:59.440Z,93173.00
2023-02-19T11:34:59.483Z,93167.00
2023-02-19T11:35:59.535Z,93163.00
2023-02-19T11:36:59.574Z,93165.00
2023-02-19T11:37:59.629Z,93169.00
2023-02-19T11:38:59.661Z,93167.00
2023-02-19T11:39:59.711Z,93157.00
2023-02-19T11:40:59.759Z,93159.00
2023-02-19T11:41:59.804Z,93173.00
2023-02-19T11:42:59.912Z,93161.00
2023-02-19T11:43:59.918Z,93156.00
2023-02-19T11:44:59.965Z,93161.00
2023-02-19T11:46:00.030Z,93163.00
2023-02-19T11:47:00.088Z,93152.00
2023-02-19T11:48:00.140Z,93157.00
2023-02-19T11:49:00.203Z,93159.00
2023-02-19T11:50:00.255Z,93154.00
2023-02-19T11:51:00.315Z,93140.00
2023-02-19T11:52:00.454Z,93144.00
2023-02-19T11:53:00.456Z,93144.00
2023-02-19T11:54:00.501Z,93140.00
2023-02-19T11:55:00.559Z,93140.00
2023-02-19T11:56:00.611Z,93148.00
2023-02-19T11:57:00.679Z,93148.00
2023-02-19T11:58:00.677Z,93144.00
2023-02-19T11:59:01.269Z,93157.00
2023-02-19T12:00:01.030Z,93130.00
2023-02-19T12:01:00.792Z,93138.00
2023-02-19T12:02:00.870Z,93126.00
2023-02-19T12:03:00.802Z,93132.00
2023-02-19T12:04:00.818Z,93134.00
2023-02-19T12:05:00.958Z,93128.00
2023-02-19T12:06:00.879Z,93136.00
2023-02-19T12:07:00.821Z,93140.00
2023-02-19T12:08:00.818Z,93132.00
2023-02-19T12:09:00.826Z,93122.00
2023-02-19T12:10:00.862Z,93130.00
2023-02-19T12:11:00.836Z,93124.00
2023-02-19T12:12:00.873Z,93120.00
2023-02-19T12:13:00.859Z,93126.00
2023-02-19T12:14:00.882Z,93132.00
2023-02-19T12:15:01.125Z,93124.00
2023-02-19T12:16:00.917Z,93120.00
2023-02-19T12:17:00.909Z,93114.00
2023-02-19T12:18:00.917Z,93109.00
2023-02-19T12:19:00.943Z,93114.00
2023-02-19T12:20:00.952Z,93116.00
2023-02-19T12:21:00.969Z,93112.00
2023-02-19T12:22:01.046Z,93107.00
2023-02-19T12:23:00.993Z,93105.00
2023-02-19T12:24:01.004Z,93105.00
2023-02-19T12:25:01.132Z,93105.00
2023-02-19T12:26:01.031Z,93099.00
2023-02-19T12:27:01.045Z,93087.00
2023-02-19T12:28:01.072Z,93093.00
2023-02-19T12:29:01.093Z,93079.00
2023-02-19T12:30:01.140Z,93089.00
2023-02-19T12:31:01.159Z,93093.00
2023-02-19T12:32:01.195Z,93077.00
2023-02-19T12:33:01.201Z,93079.00
2023-02-19T12:34:01.224Z,93091.00
2023-02-19T12:35:01.248Z,93089.00
2023-02-19T12:36:01.274Z,93067.00
2023-02-19T12:37:01.306Z,93065.00
2023-02-19T12:38:01.341Z,93073.00
2023-02-19T12:39:01.465Z,93075.00
2023-02-19T12:40:01.451Z,93073.00
2023-02-19T12:41:01.434Z,93073.00
2023-02-19T12:42:01.464Z,93095.00
2023-02-19T12:43:01.498Z,93091.00
2023-02-19T12:44:01.529Z,93089.00
2023-02-19T12:45:01.561Z,93079.00
2023-02-19T12:46:01.613Z,93079.00
2023-02-19T12:47:01.650Z,93073.00
2023-02-19T12:48:01.659Z,93079.00
2023-02-19T12:49:01.772Z,93093.00
2023-02-19T12:50:01.725Z,93075.00
2023-02-19T12:51:01.762Z,93071.00
2023-02-19T12:52:01.804Z,93079.00
2023-02-19T12:53:01.840Z,93065.00
2023-02-19T12:54:01.870Z,93067.00
2023-02-19T12:55:01.915Z,93060.00
2023-02-19T12:56:01.964Z,93069.00
2023-02-19T12:57:01.996Z,93079.00
2023-02-19T12:58:02.037Z,93075.00
2023-02-19T12:59:02.076Z,93089.00
2023-02-19T13:00:02.128Z,93067.00
2023-02-19T13:01:02.231Z,93071.00
2023-02-19T13:02:02.257Z,93073.00
2023-02-19T13:03:02.268Z,93069.00
2023-02-19T13:04:02.306Z,93069.00
2023-02-19T13:05:02.788Z,93069.00
2023-02-19T13:06:02.432Z,93087.00
2023-02-19T13:07:02.478Z,93062.00
2023-02-19T13:08:02.522Z,93087.00
2023-02-19T13:09:06.739Z,93069.00
2023-02-19T13:10:02.570Z,93065.00
2023-02-19T13:11:02.602Z,93073.00
2023-02-19T13:12:02.551Z,93067.00
2023-02-19T13:13:02.549Z,93064.00
2023-02-19T13:14:02.540Z,93060.00
2023-02-19T13:15:02.547Z,93067.00
2023-02-19T13:16:02.537Z,93073.00
2023-02-19T13:17:02.581Z,93060.00
2023-02-19T13:18:02.521Z,93075.00
2023-02-19T13:19:02.509Z,93064.00
2023-02-19T13:20:02.519Z,93064.00
2023-02-19T13:21:02.491Z,93075.00
2023-02-19T13:22:02.494Z,93087.00
2023-02-19T13:23:02.491Z,93077.00
2023-02-19T13:24:02.481Z,93069.00
2023-02-19T13:25:02.498Z,93077.00
2023-02-19T13:26:02.540Z,93073.00
2023-02-19T13:27:02.506Z,93095.00
2023-02-19T13:28:02.548Z,93079.00
2023-02-19T13:29:02.611Z,93087.00
2023-02-19T13:30:02.711Z,93073.00
2023-02-19T13:31:02.887Z,93077.00
2023-02-19T13:32:02.983Z,93075.00
2023-02-19T13:33:02.849Z,93079.00
2023-02-19T13:34:02.898Z,93077.00
2023-02-19T13:35:02.988Z,93087.00
2023-02-19T13:36:03.023Z,93077.00
2023-02-19T13:37:03.081Z,93087.00
2023-02-19T13:38:03.128Z,93075.00
2023-02-19T13:39:03.205Z,93077.00
2023-02-19T13:40:03.245Z,93077.00
2023-02-19T13:41:03.353Z,93087.00
2023-02-19T13:42:03.339Z,93093.00
2023-02-19T13:43:03.390Z,93087.00
2023-02-19T13:44:03.452Z,93093.00
2023-02-19T15:03:07.919Z,93138.00
2023-02-19T15:04:07.974Z,93138.00
2023-02-19T15:05:08.032Z,93144.00
2023-02-19T15:06:08.081Z,93138.00
2023-02-19T15:07:08.146Z,93132.00
2023-02-19T15:08:08.318Z,93142.00
2023-02-19T15:09:08.254Z,93140.00
2023-02-19T15:23:09.085Z,93140.00
2023-02-19T15:24:09.144Z,93146.00
2023-02-19T17:51:12.636Z,93385.00
2023-02-19T17:52:12.470Z,93381.00
2023-02-19T17:53:12.480Z,93383.00
2023-02-19T17:54:12.490Z,93395.00
2023-02-19T17:55:12.483Z,93393.00
2023-02-19T17:56:12.474Z,93387.00
2023-02-19T17:57:12.486Z,93383.00
2023-02-19T17:58:12.485Z,93385.00
2023-02-19T17:59:12.489Z,93383.00
2023-02-19T18:00:12.485Z,93387.00
2023-02-19T18:01:12.772Z,93385.00
2023-02-19T18:02:12.469Z,93385.00
2023-02-19T18:03:12.475Z,93381.00
2023-02-19T18:04:12.526Z,93387.00
2023-02-19T18:05:12.500Z,93397.00
2023-02-19T18:06:12.503Z,93397.00
2023-02-19T18:07:12.509Z,93395.00
2023-02-19T18:08:12.540Z,93395.00
2023-02-19T18:09:13.395Z,93398.00
2023-02-19T18:10:12.622Z,93395.00
2023-02-19T18:11:12.912Z,93391.00
2023-02-19T18:12:12.605Z,93387.00
2023-02-19T18:13:12.639Z,93397.00
2023-02-19T18:14:12.659Z,93397.00
2023-02-19T18:15:13.402Z,93395.00
2023-02-19T18:16:12.702Z,93397.00
2023-02-19T18:17:12.697Z,93398.00
2023-02-19T18:18:12.756Z,93406.00
2023-02-19T18:19:12.767Z,93408.00
2023-02-19T18:20:12.797Z,93416.00
2023-02-19T18:21:13.148Z,93418.00
2023-02-19T18:22:12.842Z,93422.00
2023-02-19T18:23:12.918Z,93426.00
2023-02-19T18:24:12.883Z,93426.00
2023-02-19T18:25:12.913Z,93424.00
2023-02-19T18:26:12.936Z,93422.00
2023-02-19T18:27:12.944Z,93430.00
2023-02-19T18:28:12.972Z,93428.00
2023-02-19T18:29:12.988Z,93438.00
2023-02-19T18:30:13.940Z,93438.00
2023-02-19T18:31:13.418Z,93434.00
2023-02-19T18:32:13.019Z,93434.00
2023-02-19T18:33:13.026Z,93436.00
2023-02-19T18:34:13.033Z,93438.00
2023-02-19T18:35:13.065Z,93438.00
2023-02-19T18:36:13.069Z,93438.00
2023-02-19T18:37:13.077Z,93442.00
2023-02-19T18:38:13.105Z,93442.00
2023-02-19T20:29:17.938Z,93465.00
2023-02-19T20:42:17.807Z,93479.00
2023-02-19T20:43:17.870Z,93479.00
2023-02-19T20:44:18.455Z,93481.00
2023-02-19T20:45:17.902Z,93479.00
2023-02-19T20:46:17.926Z,93483.00
2023-02-19T20:47:17.901Z,93487.00
2023-02-19T20:48:17.943Z,93485.00
2023-02-19T20:53:18.121Z,93495.00
2023-02-19T21:29:18.535Z,93508.00
2023-02-19T21:31:18.614Z,93504.00
2023-02-19T21:32:18.626Z,93506.00
2023-02-19T21:33:18.527Z,93506.00
2023-02-19T21:34:18.534Z,93504.00
2023-02-19T21:35:18.624Z,93502.00
2023-02-19T21:36:18.538Z,93500.00
2023-02-19T21:37:18.523Z,93504.00
2023-02-19T21:38:18.530Z,93504.00
2023-02-19T21:39:18.593Z,93506.00
2023-02-19T21:40:18.579Z,93502.00
2023-02-19T21:41:18.601Z,93502.00
2023-02-19T21:42:18.601Z,93502.00
2023-02-19T21:43:18.599Z,93500.00
2023-02-19T21:44:18.608Z,93500.00
2023-02-19T21:45:18.607Z,93502.00
2023-02-19T21:47:18.602Z,93502.00
2023-02-19T21:48:18.605Z,93499.00
2023-02-19T21:49:18.605Z,93502.00
2023-02-19T21:50:18.612Z,93500.00
2023-02-19T21:51:18.629Z,93495.00
2023-02-19T21:52:18.622Z,93499.00
2023-02-19T21:53:18.622Z,93502.00
2023-02-19T21:54:18.627Z,93504.00
2023-02-19T21:55:18.675Z,93502.00
2023-02-19T21:56:18.658Z,93502.00
2023-02-19T21:57:18.660Z,93506.00
2023-02-19T21:58:18.654Z,93508.00
2023-02-19T21:59:18.690Z,93508.00
2023-02-19T22:00:18.697Z,93506.00
2023-02-19T22:01:18.710Z,93504.00
2023-02-19T22:02:18.771Z,93504.00
2023-02-19T22:03:18.700Z,93508.00
2023-02-19T22:04:18.692Z,93508.00
2023-02-19T22:05:18.691Z,93504.00
2023-02-19T22:06:18.695Z,93502.00
2023-02-19T22:07:18.692Z,93502.00
2023-02-19T22:08:18.706Z,93506.00
2023-02-19T22:09:18.702Z,93508.00
2023-02-19T22:10:18.705Z,93506.00
2023-02-19T22:11:18.715Z,93510.00
2023-02-19T22:12:18.698Z,93510.00
2023-02-19T22:13:18.712Z,93510.00
2023-02-19T22:14:18.705Z,93512.00
2023-02-19T22:15:18.727Z,93514.00
2023-02-19T22:16:18.732Z,93518.00
2023-02-19T22:17:18.696Z,93518.00
2023-02-19T22:18:18.696Z,93520.00
2023-02-19T22:19:18.702Z,93522.00
2023-02-19T22:20:18.846Z,93528.00
2023-02-19T22:21:18.710Z,93536.00
2023-02-19T22:22:18.701Z,93538.00
2023-02-19T22:23:18.697Z,93540.00
2023-02-19T22:24:19.494Z,93542.00
2023-02-19T22:25:18.713Z,93538.00
2023-02-19T22:26:18.741Z,93538.00
2023-02-19T22:27:18.725Z,93536.00
2023-02-19T22:28:18.742Z,93538.00
2023-02-19T22:29:18.756Z,93534.00
2023-02-19T22:30:18.830Z,93530.00
2023-02-19T22:31:18.853Z,93532.00
2023-02-19T22:32:18.959Z,93534.00
2023-02-19T22:33:18.842Z,93536.00
2023-02-19T22:34:18.847Z,93534.00
2023-02-19T22:35:18.841Z,93532.00
2023-02-19T22:36:18.891Z,93528.00
2023-02-19T22:37:18.896Z,93526.00
2023-02-19T22:38:18.943Z,93526.00
2023-02-19T22:39:18.990Z,93526.00
2023-02-19T22:40:19.028Z,93524.00
2023-02-19T22:41:19.060Z,93524.00
2023-02-19T22:42:19.107Z,93522.00
2023-02-19T22:43:19.190Z,93524.00
2023-02-19T22:44:19.180Z,93526.00
2023-02-19T22:45:19.204Z,93528.00
2023-02-19T22:46:19.409Z,93528.00
2023-02-19T22:47:19.333Z,93528.00
2023-02-19T22:48:29.708Z,93524.00
2023-02-19T22:50:19.351Z,93532.00
2023-02-19T22:51:19.496Z,93532.00
2023-02-19T22:52:19.343Z,93534.00
2023-02-19T22:54:19.320Z,93538.00
2023-02-19T22:55:19.313Z,93536.00
2023-02-19T22:56:19.317Z,93536.00
2023-02-19T22:57:19.297Z,93540.00
2023-02-19T22:58:19.332Z,93540.00
2023-02-19T22:59:19.421Z,93544.00
2023-02-19T23:00:19.462Z,93546.00
